sensor_id;sensor_type;location;lat;lon;timestamp;P1;durP1;ratioP1;P2;durP2;ratioP2
44670;SDS011;48397;53.016;-2.260;2023-04-15T00:02:17;53.10;;;27.33;;
44670;SDS011;48397;53.016;-2.260;2023-04-15T00:04:46;45.88;;;23.50;;
44670;SDS011;48397;53.016;-2.260;2023-04-15T00:07:15;40.25;;;21.40;;
44670;SDS011;48397;53.016;-2.260;2023-04-15T00:09:44;48.47;;;24.58;;
44670;SDS011;48397;53.016;-2.260;2023-04-15T00:12:11;59.58;;;29.45;;
44670;SDS011;48397;53.016;-2.260;2023-04-15T00:14:39;52.92;;;26.42;;
44670;SDS011;48397;53.016;-2.260;2023-04-15T00:17:07;63.83;;;31.30;;
44670;SDS011;48397;53.016;-2.260;2023-04-15T00:19:35;55.35;;;26.02;;
44670;SDS011;48397;53.016;-2.260;2023-04-15T00:22:02;54.90;;;26.27;;
44670;SDS011;48397;53.016;-2.260;2023-04-15T00:24:30;55.45;;;26.65;;
44670;SDS011;48397;53.016;-2.260;2023-04-15T00:26:58;59.20;;;28.40;;
44670;SDS011;48397;53.016;-2.260;2023-04-15T00:29:26;60.45;;;27.80;;
44670;SDS011;48397;53.016;-2.260;2023-04-15T00:31:54;46.72;;;23.05;;
44670;SDS011;48397;53.016;-2.260;2023-04-15T00:34:22;42.63;;;18.42;;
44670;SDS011;48397;53.016;-2.260;2023-04-15T00:36:50;55.83;;;24.73;;
44670;SDS011;48397;53.016;-2.260;2023-04-15T00:41:46;50.17;;;23.98;;
44670;SDS011;48397;53.016;-2.260;2023-04-15T00:44:15;58.63;;;27.35;;
44670;SDS011;48397;53.016;-2.260;2023-04-15T00:46:45;57.53;;;24.60;;
44670;SDS011;48397;53.016;-2.260;2023-04-15T00:49:15;62.95;;;26.33;;
44670;SDS011;48397;53.016;-2.260;2023-04-15T00:51:44;55.50;;;25.75;;
44670;SDS011;48397;53.016;-2.260;2023-04-15T00:54:12;46.30;;;19.60;;
44670;SDS011;48397;53.016;-2.260;2023-04-15T00:56:40;53.22;;;23.13;;
44670;SDS011;48397;53.016;-2.260;2023-04-15T00:59:08;55.40;;;24.10;;
44670;SDS011;48397;53.016;-2.260;2023-04-15T01:01:37;45.70;;;21.83;;
44670;SDS011;48397;53.016;-2.260;2023-04-15T01:04:05;57.30;;;24.20;;
44670;SDS011;48397;53.016;-2.260;2023-04-15T01:06:33;57.42;;;24.45;;
44670;SDS011;48397;53.016;-2.260;2023-04-15T01:09:01;53.30;;;23.65;;
44670;SDS011;48397;53.016;-2.260;2023-04-15T01:11:29;36.65;;;19.15;;
44670;SDS011;48397;53.016;-2.260;2023-04-15T01:14:01;58.28;;;24.75;;
44670;SDS011;48397;53.016;-2.260;2023-04-15T01:16:30;48.97;;;19.25;;
44670;SDS011;48397;53.016;-2.260;2023-04-15T01:18:58;57.33;;;21.70;;
44670;SDS011;48397;53.016;-2.260;2023-04-15T01:21:26;45.67;;;18.50;;
44670;SDS011;48397;53.016;-2.260;2023-04-15T01:23:54;66.93;;;26.88;;
44670;SDS011;48397;53.016;-2.260;2023-04-15T01:26:22;65.22;;;26.63;;
44670;SDS011;48397;53.016;-2.260;2023-04-15T01:28:51;51.17;;;21.40;;
44670;SDS011;48397;53.016;-2.260;2023-04-15T01:31:19;49.38;;;20.58;;
44670;SDS011;48397;53.016;-2.260;2023-04-15T01:36:33;66.03;;;28.02;;
44670;SDS011;48397;53.016;-2.260;2023-04-15T01:39:02;71.88;;;29.63;;
44670;SDS011;48397;53.016;-2.260;2023-04-15T01:41:31;40.75;;;17.20;;
44670;SDS011;48397;53.016;-2.260;2023-04-15T01:44:00;46.03;;;19.23;;
44670;SDS011;48397;53.016;-2.260;2023-04-15T01:46:30;54.60;;;22.17;;
44670;SDS011;48397;53.016;-2.260;2023-04-15T01:49:00;60.10;;;25.40;;
44670;SDS011;48397;53.016;-2.260;2023-04-15T01:51:31;37.65;;;16.55;;
44670;SDS011;48397;53.016;-2.260;2023-04-15T01:54:00;55.75;;;24.50;;
44670;SDS011;48397;53.016;-2.260;2023-04-15T01:56:30;48.15;;;17.25;;
44670;SDS011;48397;53.016;-2.260;2023-04-15T01:58:59;60.33;;;24.95;;
44670;SDS011;48397;53.016;-2.260;2023-04-15T02:01:29;57.80;;;24.98;;
44670;SDS011;48397;53.016;-2.260;2023-04-15T02:03:59;47.75;;;18.80;;
44670;SDS011;48397;53.016;-2.260;2023-04-15T02:06:31;50.72;;;20.92;;
44670;SDS011;48397;53.016;-2.260;2023-04-15T02:09:00;76.05;;;29.75;;
44670;SDS011;48397;53.016;-2.260;2023-04-15T02:11:29;49.50;;;20.02;;
44670;SDS011;48397;53.016;-2.260;2023-04-15T02:13:59;40.40;;;18.33;;
44670;SDS011;48397;53.016;-2.260;2023-04-15T02:16:28;60.92;;;24.42;;
44670;SDS011;48397;53.016;-2.260;2023-04-15T02:18:57;52.92;;;20.70;;
44670;SDS011;48397;53.016;-2.260;2023-04-15T02:21:27;61.13;;;26.73;;
44670;SDS011;48397;53.016;-2.260;2023-04-15T02:23:56;63.22;;;26.65;;
44670;SDS011;48397;53.016;-2.260;2023-04-15T02:26:25;66.57;;;25.60;;
44670;SDS011;48397;53.016;-2.260;2023-04-15T02:28:54;65.25;;;27.42;;
44670;SDS011;48397;53.016;-2.260;2023-04-15T02:31:23;64.38;;;26.08;;
44670;SDS011;48397;53.016;-2.260;2023-04-15T02:33:53;58.22;;;25.45;;
44670;SDS011;48397;53.016;-2.260;2023-04-15T02:36:22;61.67;;;24.75;;
44670;SDS011;48397;53.016;-2.260;2023-04-15T02:38:51;69.53;;;29.15;;
44670;SDS011;48397;53.016;-2.260;2023-04-15T02:41:20;67.57;;;28.42;;
44670;SDS011;48397;53.016;-2.260;2023-04-15T02:43:54;63.63;;;27.48;;
44670;SDS011;48397;53.016;-2.260;2023-04-15T02:46:24;76.40;;;31.00;;
44670;SDS011;48397;53.016;-2.260;2023-04-15T02:48:54;70.53;;;26.92;;
44670;SDS011;48397;53.016;-2.260;2023-04-15T02:51:25;65.32;;;26.17;;
44670;SDS011;48397;53.016;-2.260;2023-04-15T02:53:59;78.75;;;31.05;;
44670;SDS011;48397;53.016;-2.260;2023-04-15T02:56:28;66.70;;;27.63;;
44670;SDS011;48397;53.016;-2.260;2023-04-15T02:58:58;77.85;;;32.70;;
44670;SDS011;48397;53.016;-2.260;2023-04-15T03:01:27;72.40;;;30.60;;
44670;SDS011;48397;53.016;-2.260;2023-04-15T03:03:57;70.95;;;30.25;;
44670;SDS011;48397;53.016;-2.260;2023-04-15T03:06:26;88.35;;;33.80;;
44670;SDS011;48397;53.016;-2.260;2023-04-15T03:08:55;78.13;;;31.48;;
44670;SDS011;48397;53.016;-2.260;2023-04-15T03:11:24;80.40;;;32.50;;
44670;SDS011;48397;53.016;-2.260;2023-04-15T03:13:54;85.72;;;32.33;;
44670;SDS011;48397;53.016;-2.260;2023-04-15T03:16:31;94.32;;;38.40;;
44670;SDS011;48397;53.016;-2.260;2023-04-15T03:19:01;88.22;;;34.88;;
44670;SDS011;48397;53.016;-2.260;2023-04-15T03:21:31;103.45;;;39.15;;
44670;SDS011;48397;53.016;-2.260;2023-04-15T03:24:00;95.78;;;35.92;;
44670;SDS011;48397;53.016;-2.260;2023-04-15T03:26:30;94.38;;;34.25;;
44670;SDS011;48397;53.016;-2.260;2023-04-15T03:29:02;107.90;;;37.47;;
44670;SDS011;48397;53.016;-2.260;2023-04-15T03:31:32;90.15;;;35.15;;
44670;SDS011;48397;53.016;-2.260;2023-04-15T03:34:01;132.18;;;37.42;;
44670;SDS011;48397;53.016;-2.260;2023-04-15T03:36:30;99.18;;;33.35;;
44670;SDS011;48397;53.016;-2.260;2023-04-15T03:39:00;103.40;;;34.72;;
44670;SDS011;48397;53.016;-2.260;2023-04-15T03:41:32;116.57;;;36.95;;
44670;SDS011;48397;53.016;-2.260;2023-04-15T03:44:01;125.95;;;39.08;;
44670;SDS011;48397;53.016;-2.260;2023-04-15T03:46:30;127.32;;;38.58;;
44670;SDS011;48397;53.016;-2.260;2023-04-15T03:48:59;137.48;;;39.35;;
44670;SDS011;48397;53.016;-2.260;2023-04-15T03:51:29;120.13;;;34.95;;
44670;SDS011;48397;53.016;-2.260;2023-04-15T03:53:58;122.50;;;32.53;;
44670;SDS011;48397;53.016;-2.260;2023-04-15T03:56:27;182.70;;;43.58;;
44670;SDS011;48397;53.016;-2.260;2023-04-15T03:58:56;165.93;;;40.88;;
44670;SDS011;48397;53.016;-2.260;2023-04-15T04:01:26;170.57;;;36.40;;
44670;SDS011;48397;53.016;-2.260;2023-04-15T04:03:55;189.82;;;37.50;;
44670;SDS011;48397;53.016;-2.260;2023-04-15T04:06:24;123.47;;;28.25;;
44670;SDS011;48397;53.016;-2.260;2023-04-15T04:08:53;137.30;;;30.15;;
44670;SDS011;48397;53.016;-2.260;2023-04-15T04:11:23;61.15;;;20.20;;
44670;SDS011;48397;53.016;-2.260;2023-04-15T04:13:52;112.57;;;27.23;;
44670;SDS011;48397;53.016;-2.260;2023-04-15T04:16:21;149.15;;;31.58;;
44670;SDS011;48397;53.016;-2.260;2023-04-15T04:18:50;98.15;;;26.40;;
44670;SDS011;48397;53.016;-2.260;2023-04-15T04:21:19;148.40;;;29.55;;
44670;SDS011;48397;53.016;-2.260;2023-04-15T04:23:49;203.52;;;34.72;;
44670;SDS011;48397;53.016;-2.260;2023-04-15T04:26:18;182.30;;;31.95;;
44670;SDS011;48397;53.016;-2.260;2023-04-15T04:28:48;128.18;;;27.77;;
44670;SDS011;48397;53.016;-2.260;2023-04-15T04:31:17;213.43;;;33.95;;
44670;SDS011;48397;53.016;-2.260;2023-04-15T04:33:46;100.68;;;24.35;;
44670;SDS011;48397;53.016;-2.260;2023-04-15T04:36:15;84.47;;;25.13;;
44670;SDS011;48397;53.016;-2.260;2023-04-15T04:38:44;85.63;;;24.63;;
44670;SDS011;48397;53.016;-2.260;2023-04-15T04:41:14;79.20;;;23.00;;
44670;SDS011;48397;53.016;-2.260;2023-04-15T04:43:43;144.52;;;27.48;;
44670;SDS011;48397;53.016;-2.260;2023-04-15T04:46:11;140.32;;;30.95;;
44670;SDS011;48397;53.016;-2.260;2023-04-15T04:48:41;208.52;;;34.92;;
44670;SDS011;48397;53.016;-2.260;2023-04-15T04:51:11;298.88;;;37.58;;
44670;SDS011;48397;53.016;-2.260;2023-04-15T04:53:39;266.95;;;33.13;;
44670;SDS011;48397;53.016;-2.260;2023-04-15T04:56:10;88.05;;;23.02;;
44670;SDS011;48397;53.016;-2.260;2023-04-15T04:58:39;124.88;;;24.95;;
44670;SDS011;48397;53.016;-2.260;2023-04-15T05:01:08;116.03;;;26.10;;
44670;SDS011;48397;53.016;-2.260;2023-04-15T05:03:37;167.48;;;29.45;;
44670;SDS011;48397;53.016;-2.260;2023-04-15T05:06:07;237.23;;;36.05;;
44670;SDS011;48397;53.016;-2.260;2023-04-15T05:08:36;287.95;;;40.50;;
44670;SDS011;48397;53.016;-2.260;2023-04-15T05:11:07;395.85;;;44.13;;
44670;SDS011;48397;53.016;-2.260;2023-04-15T05:13:37;365.95;;;42.47;;
44670;SDS011;48397;53.016;-2.260;2023-04-15T05:16:06;388.80;;;47.60;;
44670;SDS011;48397;53.016;-2.260;2023-04-15T05:18:35;340.27;;;43.90;;
44670;SDS011;48397;53.016;-2.260;2023-04-15T05:21:05;312.55;;;45.35;;
44670;SDS011;48397;53.016;-2.260;2023-04-15T05:23:35;381.05;;;56.25;;
44670;SDS011;48397;53.016;-2.260;2023-04-15T05:26:04;226.18;;;36.60;;
44670;SDS011;48397;53.016;-2.260;2023-04-15T05:28:33;475.83;;;54.35;;
44670;SDS011;48397;53.016;-2.260;2023-04-15T05:31:04;1023.00;;;134.45;;
44670;SDS011;48397;53.016;-2.260;2023-04-15T05:33:33;599.08;;;68.90;;
44670;SDS011;48397;53.016;-2.260;2023-04-15T05:36:02;616.95;;;71.88;;
44670;SDS011;48397;53.016;-2.260;2023-04-15T05:38:31;391.65;;;47.50;;
44670;SDS011;48397;53.016;-2.260;2023-04-15T05:41:01;405.70;;;43.15;;
44670;SDS011;48397;53.016;-2.260;2023-04-15T05:43:30;432.27;;;50.25;;
44670;SDS011;48397;53.016;-2.260;2023-04-15T05:45:58;319.67;;;41.70;;
44670;SDS011;48397;53.016;-2.260;2023-04-15T05:48:27;401.20;;;47.20;;
44670;SDS011;48397;53.016;-2.260;2023-04-15T05:50:56;411.95;;;47.20;;
44670;SDS011;48397;53.016;-2.260;2023-04-15T05:53:25;301.58;;;38.92;;
44670;SDS011;48397;53.016;-2.260;2023-04-15T05:55:54;127.10;;;24.80;;
44670;SDS011;48397;53.016;-2.260;2023-04-15T05:58:23;120.43;;;22.27;;
44670;SDS011;48397;53.016;-2.260;2023-04-15T06:00:52;182.85;;;30.27;;
44670;SDS011;48397;53.016;-2.260;2023-04-15T06:03:21;198.88;;;31.20;;
44670;SDS011;48397;53.016;-2.260;2023-04-15T06:05:51;134.13;;;27.38;;
44670;SDS011;48397;53.016;-2.260;2023-04-15T06:08:19;126.90;;;25.70;;
44670;SDS011;48397;53.016;-2.260;2023-04-15T06:10:49;108.95;;;24.45;;
44670;SDS011;48397;53.016;-2.260;2023-04-15T06:13:18;100.40;;;23.00;;
44670;SDS011;48397;53.016;-2.260;2023-04-15T06:15:47;164.50;;;30.33;;
44670;SDS011;48397;53.016;-2.260;2023-04-15T06:18:16;118.38;;;27.27;;
44670;SDS011;48397;53.016;-2.260;2023-04-15T06:20:45;69.60;;;21.48;;
44670;SDS011;48397;53.016;-2.260;2023-04-15T06:23:14;79.90;;;23.80;;
44670;SDS011;48397;53.016;-2.260;2023-04-15T06:25:43;80.07;;;24.00;;
44670;SDS011;48397;53.016;-2.260;2023-04-15T06:28:12;86.25;;;23.63;;
44670;SDS011;48397;53.016;-2.260;2023-04-15T06:30:42;86.32;;;23.58;;
44670;SDS011;48397;53.016;-2.260;2023-04-15T06:33:11;75.03;;;22.30;;
44670;SDS011;48397;53.016;-2.260;2023-04-15T06:35:40;79.68;;;22.88;;
44670;SDS011;48397;53.016;-2.260;2023-04-15T06:38:09;77.47;;;22.83;;
44670;SDS011;48397;53.016;-2.260;2023-04-15T06:40:38;81.93;;;23.83;;
44670;SDS011;48397;53.016;-2.260;2023-04-15T06:43:07;78.90;;;24.60;;
44670;SDS011;48397;53.016;-2.260;2023-04-15T06:45:36;79.03;;;23.58;;
44670;SDS011;48397;53.016;-2.260;2023-04-15T06:48:05;63.90;;;21.35;;
44670;SDS011;48397;53.016;-2.260;2023-04-15T06:50:34;62.30;;;19.95;;
44670;SDS011;48397;53.016;-2.260;2023-04-15T06:53:03;60.60;;;18.17;;
44670;SDS011;48397;53.016;-2.260;2023-04-15T06:55:32;37.85;;;13.00;;
44670;SDS011;48397;53.016;-2.260;2023-04-15T06:58:01;52.70;;;17.52;;
44670;SDS011;48397;53.016;-2.260;2023-04-15T07:00:30;45.85;;;16.25;;
44670;SDS011;48397;53.016;-2.260;2023-04-15T07:03:01;56.33;;;17.38;;
44670;SDS011;48397;53.016;-2.260;2023-04-15T07:05:31;60.72;;;17.48;;
44670;SDS011;48397;53.016;-2.260;2023-04-15T07:08:01;57.47;;;17.02;;
44670;SDS011;48397;53.016;-2.260;2023-04-15T07:10:32;45.92;;;13.70;;
44670;SDS011;48397;53.016;-2.260;2023-04-15T07:13:01;54.53;;;17.13;;
44670;SDS011;48397;53.016;-2.260;2023-04-15T07:15:31;53.08;;;18.02;;
44670;SDS011;48397;53.016;-2.260;2023-04-15T07:18:00;54.17;;;18.20;;
44670;SDS011;48397;53.016;-2.260;2023-04-15T07:20:30;51.47;;;16.98;;
44670;SDS011;48397;53.016;-2.260;2023-04-15T07:22:58;47.80;;;16.35;;
44670;SDS011;48397;53.016;-2.260;2023-04-15T07:25:27;44.50;;;15.57;;
44670;SDS011;48397;53.016;-2.260;2023-04-15T07:27:56;39.13;;;13.02;;
44670;SDS011;48397;53.016;-2.260;2023-04-15T07:30:25;40.13;;;14.73;;
44670;SDS011;48397;53.016;-2.260;2023-04-15T07:32:54;37.25;;;14.10;;
44670;SDS011;48397;53.016;-2.260;2023-04-15T07:35:23;35.58;;;13.57;;
44670;SDS011;48397;53.016;-2.260;2023-04-15T07:37:53;37.00;;;13.20;;
44670;SDS011;48397;53.016;-2.260;2023-04-15T07:40:22;30.60;;;12.73;;
44670;SDS011;48397;53.016;-2.260;2023-04-15T07:42:52;32.60;;;13.95;;
44670;SDS011;48397;53.016;-2.260;2023-04-15T07:45:21;32.35;;;12.98;;
44670;SDS011;48397;53.016;-2.260;2023-04-15T07:47:50;27.40;;;12.50;;
44670;SDS011;48397;53.016;-2.260;2023-04-15T07:50:19;20.08;;;9.07;;
44670;SDS011;48397;53.016;-2.260;2023-04-15T07:52:49;20.33;;;8.35;;
44670;SDS011;48397;53.016;-2.260;2023-04-15T07:55:19;18.33;;;8.70;;
44670;SDS011;48397;53.016;-2.260;2023-04-15T07:57:50;15.00;;;6.82;;
44670;SDS011;48397;53.016;-2.260;2023-04-15T08:00:19;10.43;;;6.38;;
44670;SDS011;48397;53.016;-2.260;2023-04-15T08:02:48;13.68;;;5.78;;
44670;SDS011;48397;53.016;-2.260;2023-04-15T08:05:17;16.73;;;8.00;;
44670;SDS011;48397;53.016;-2.260;2023-04-15T08:07:47;16.42;;;6.15;;
44670;SDS011;48397;53.016;-2.260;2023-04-15T08:10:16;15.07;;;6.68;;
44670;SDS011;48397;53.016;-2.260;2023-04-15T08:12:45;19.35;;;8.45;;
44670;SDS011;48397;53.016;-2.260;2023-04-15T08:15:19;16.35;;;7.35;;
44670;SDS011;48397;53.016;-2.260;2023-04-15T08:17:48;9.75;;;4.95;;
44670;SDS011;48397;53.016;-2.260;2023-04-15T08:20:17;13.15;;;5.88;;
44670;SDS011;48397;53.016;-2.260;2023-04-15T08:22:46;15.05;;;6.97;;
44670;SDS011;48397;53.016;-2.260;2023-04-15T08:25:19;11.95;;;6.45;;
44670;SDS011;48397;53.016;-2.260;2023-04-15T08:27:48;15.43;;;7.57;;
44670;SDS011;48397;53.016;-2.260;2023-04-15T08:30:18;6.28;;;2.90;;
44670;SDS011;48397;53.016;-2.260;2023-04-15T08:32:48;9.40;;;4.32;;
44670;SDS011;48397;53.016;-2.260;2023-04-15T08:35:18;10.38;;;5.18;;
44670;SDS011;48397;53.016;-2.260;2023-04-15T08:37:47;13.05;;;5.38;;
44670;SDS011;48397;53.016;-2.260;2023-04-15T08:40:16;9.35;;;5.20;;
44670;SDS011;48397;53.016;-2.260;2023-04-15T08:42:45;14.90;;;7.13;;
44670;SDS011;48397;53.016;-2.260;2023-04-15T08:45:17;8.02;;;3.83;;
44670;SDS011;48397;53.016;-2.260;2023-04-15T08:47:46;13.07;;;6.63;;
44670;SDS011;48397;53.016;-2.260;2023-04-15T08:50:18;10.93;;;5.00;;
44670;SDS011;48397;53.016;-2.260;2023-04-15T08:52:48;12.07;;;5.95;;
44670;SDS011;48397;53.016;-2.260;2023-04-15T08:55:17;11.30;;;5.60;;
44670;SDS011;48397;53.016;-2.260;2023-04-15T08:57:47;6.95;;;4.22;;
44670;SDS011;48397;53.016;-2.260;2023-04-15T09:00:16;14.50;;;7.03;;
44670;SDS011;48397;53.016;-2.260;2023-04-15T09:02:46;13.68;;;6.82;;
44670;SDS011;48397;53.016;-2.260;2023-04-15T09:05:15;12.07;;;6.35;;
44670;SDS011;48397;53.016;-2.260;2023-04-15T09:07:45;11.82;;;5.35;;
44670;SDS011;48397;53.016;-2.260;2023-04-15T09:10:14;10.02;;;4.93;;
44670;SDS011;48397;53.016;-2.260;2023-04-15T09:12:43;9.30;;;5.32;;
44670;SDS011;48397;53.016;-2.260;2023-04-15T09:15:12;11.05;;;5.22;;
44670;SDS011;48397;53.016;-2.260;2023-04-15T09:17:42;9.10;;;4.78;;
44670;SDS011;48397;53.016;-2.260;2023-04-15T09:20:13;10.18;;;5.15;;
44670;SDS011;48397;53.016;-2.260;2023-04-15T09:22:44;11.68;;;5.25;;
44670;SDS011;48397;53.016;-2.260;2023-04-15T09:27:53;10.60;;;5.22;;
44670;SDS011;48397;53.016;-2.260;2023-04-15T09:30:24;8.60;;;4.47;;
44670;SDS011;48397;53.016;-2.260;2023-04-15T09:32:57;8.13;;;4.07;;
44670;SDS011;48397;53.016;-2.260;2023-04-15T09:35:29;10.90;;;5.70;;
44670;SDS011;48397;53.016;-2.260;2023-04-15T09:38:03;10.55;;;5.57;;
44670;SDS011;48397;53.016;-2.260;2023-04-15T09:40:40;9.52;;;4.95;;
44670;SDS011;48397;53.016;-2.260;2023-04-15T09:43:09;11.05;;;5.00;;
44670;SDS011;48397;53.016;-2.260;2023-04-15T09:48:24;10.05;;;5.30;;
44670;SDS011;48397;53.016;-2.260;2023-04-15T09:50:58;12.10;;;5.32;;
44670;SDS011;48397;53.016;-2.260;2023-04-15T09:53:28;8.45;;;4.60;;
44670;SDS011;48397;53.016;-2.260;2023-04-15T09:56:01;10.18;;;5.32;;
44670;SDS011;48397;53.016;-2.260;2023-04-15T09:58:32;8.27;;;4.65;;
44670;SDS011;48397;53.016;-2.260;2023-04-15T10:01:02;7.97;;;4.88;;
44670;SDS011;48397;53.016;-2.260;2023-04-15T10:03:34;8.48;;;4.32;;
44670;SDS011;48397;53.016;-2.260;2023-04-15T10:06:06;11.73;;;5.05;;
44670;SDS011;48397;53.016;-2.260;2023-04-15T10:08:36;8.85;;;4.95;;
44670;SDS011;48397;53.016;-2.260;2023-04-15T10:11:06;9.05;;;4.97;;
44670;SDS011;48397;53.016;-2.260;2023-04-15T10:13:35;11.00;;;5.70;;
44670;SDS011;48397;53.016;-2.260;2023-04-15T10:16:08;9.50;;;5.22;;
44670;SDS011;48397;53.016;-2.260;2023-04-15T10:18:47;8.43;;;5.15;;
44670;SDS011;48397;53.016;-2.260;2023-04-15T10:21:21;8.93;;;5.00;;
44670;SDS011;48397;53.016;-2.260;2023-04-15T10:23:51;10.18;;;5.53;;
44670;SDS011;48397;53.016;-2.260;2023-04-15T10:26:20;10.15;;;5.40;;
44670;SDS011;48397;53.016;-2.260;2023-04-15T10:28:49;7.32;;;4.70;;
44670;SDS011;48397;53.016;-2.260;2023-04-15T10:31:19;6.95;;;4.55;;
44670;SDS011;48397;53.016;-2.260;2023-04-15T10:33:49;7.20;;;4.22;;
44670;SDS011;48397;53.016;-2.260;2023-04-15T10:36:19;8.55;;;5.22;;
44670;SDS011;48397;53.016;-2.260;2023-04-15T10:38:48;7.18;;;4.95;;
44670;SDS011;48397;53.016;-2.260;2023-04-15T10:41:21;8.35;;;4.35;;
44670;SDS011;48397;53.016;-2.260;2023-04-15T10:49:14;11.40;;;5.05;;
44670;SDS011;48397;53.016;-2.260;2023-04-15T10:51:46;7.10;;;5.10;;
44670;SDS011;48397;53.016;-2.260;2023-04-15T11:05:15;12.77;;;7.32;;
44670;SDS011;48397;53.016;-2.260;2023-04-15T11:12:49;12.85;;;7.47;;
44670;SDS011;48397;53.016;-2.260;2023-04-15T11:15:27;10.73;;;6.50;;
44670;SDS011;48397;53.016;-2.260;2023-04-15T11:18:14;13.70;;;7.10;;
44670;SDS011;48397;53.016;-2.260;2023-04-15T11:20:50;11.88;;;7.10;;
44670;SDS011;48397;53.016;-2.260;2023-04-15T11:26:02;13.10;;;7.53;;
44670;SDS011;48397;53.016;-2.260;2023-04-15T11:28:34;12.55;;;7.35;;
44670;SDS011;48397;53.016;-2.260;2023-04-15T11:31:09;13.18;;;6.75;;
44670;SDS011;48397;53.016;-2.260;2023-04-15T11:33:53;10.98;;;6.72;;
44670;SDS011;48397;53.016;-2.260;2023-04-15T11:36:27;12.52;;;6.88;;
44670;SDS011;48397;53.016;-2.260;2023-04-15T11:38:57;10.75;;;6.50;;
44670;SDS011;48397;53.016;-2.260;2023-04-15T11:41:27;10.50;;;6.30;;
44670;SDS011;48397;53.016;-2.260;2023-04-15T11:43:55;10.48;;;6.50;;
44670;SDS011;48397;53.016;-2.260;2023-04-15T11:46:28;10.00;;;6.30;;
44670;SDS011;48397;53.016;-2.260;2023-04-15T11:48:59;10.65;;;6.65;;
44670;SDS011;48397;53.016;-2.260;2023-04-15T11:51:31;10.63;;;6.93;;
44670;SDS011;48397;53.016;-2.260;2023-04-15T11:54:01;10.15;;;6.32;;
44670;SDS011;48397;53.016;-2.260;2023-04-15T11:56:30;8.93;;;5.40;;
44670;SDS011;48397;53.016;-2.260;2023-04-15T11:58:58;10.95;;;5.68;;
44670;SDS011;48397;53.016;-2.260;2023-04-15T12:01:36;9.02;;;5.15;;
44670;SDS011;48397;53.016;-2.260;2023-04-15T12:04:14;9.50;;;5.75;;
44670;SDS011;48397;53.016;-2.260;2023-04-15T12:06:48;11.15;;;6.18;;
44670;SDS011;48397;53.016;-2.260;2023-04-15T12:09:15;8.20;;;5.82;;
44670;SDS011;48397;53.016;-2.260;2023-04-15T12:16:43;7.72;;;5.32;;
44670;SDS011;48397;53.016;-2.260;2023-04-15T12:19:17;8.82;;;6.10;;
44670;SDS011;48397;53.016;-2.260;2023-04-15T12:21:49;10.00;;;5.70;;
44670;SDS011;48397;53.016;-2.260;2023-04-15T12:24:19;7.78;;;5.07;;
44670;SDS011;48397;53.016;-2.260;2023-04-15T12:26:51;7.18;;;4.53;;
44670;SDS011;48397;53.016;-2.260;2023-04-15T12:29:24;6.68;;;4.63;;
44670;SDS011;48397;53.016;-2.260;2023-04-15T12:32:02;9.30;;;5.60;;
44670;SDS011;48397;53.016;-2.260;2023-04-15T12:37:07;6.93;;;4.47;;
44670;SDS011;48397;53.016;-2.260;2023-04-15T12:39:39;9.45;;;5.65;;
44670;SDS011;48397;53.016;-2.260;2023-04-15T12:42:09;6.82;;;4.78;;
44670;SDS011;48397;53.016;-2.260;2023-04-15T12:44:37;9.15;;;4.30;;
44670;SDS011;48397;53.016;-2.260;2023-04-15T12:47:05;7.30;;;4.43;;
44670;SDS011;48397;53.016;-2.260;2023-04-15T12:49:34;6.70;;;4.30;;
44670;SDS011;48397;53.016;-2.260;2023-04-15T12:52:02;7.57;;;4.47;;
44670;SDS011;48397;53.016;-2.260;2023-04-15T12:56:57;7.43;;;4.30;;
44670;SDS011;48397;53.016;-2.260;2023-04-15T12:59:25;7.53;;;4.65;;
44670;SDS011;48397;53.016;-2.260;2023-04-15T13:01:53;7.22;;;4.13;;
44670;SDS011;48397;53.016;-2.260;2023-04-15T13:04:21;6.57;;;4.18;;
44670;SDS011;48397;53.016;-2.260;2023-04-15T13:06:49;9.02;;;4.63;;
44670;SDS011;48397;53.016;-2.260;2023-04-15T13:09:17;5.93;;;4.30;;
44670;SDS011;48397;53.016;-2.260;2023-04-15T13:11:45;7.10;;;4.65;;
44670;SDS011;48397;53.016;-2.260;2023-04-15T13:14:12;8.63;;;4.20;;
44670;SDS011;48397;53.016;-2.260;2023-04-15T13:16:40;7.15;;;3.95;;
44670;SDS011;48397;53.016;-2.260;2023-04-15T13:19:08;6.43;;;4.25;;
44670;SDS011;48397;53.016;-2.260;2023-04-15T13:21:35;5.25;;;3.70;;
44670;SDS011;48397;53.016;-2.260;2023-04-15T13:26:33;7.05;;;4.68;;
44670;SDS011;48397;53.016;-2.260;2023-04-15T13:29:03;8.05;;;4.63;;
44670;SDS011;48397;53.016;-2.260;2023-04-15T13:36:27;6.68;;;4.07;;
44670;SDS011;48397;53.016;-2.260;2023-04-15T13:38:55;5.88;;;4.15;;
44670;SDS011;48397;53.016;-2.260;2023-04-15T13:41:37;6.72;;;4.03;;
44670;SDS011;48397;53.016;-2.260;2023-04-15T13:44:07;6.10;;;4.15;;
44670;SDS011;48397;53.016;-2.260;2023-04-15T13:46:34;5.85;;;4.05;;
44670;SDS011;48397;53.016;-2.260;2023-04-15T13:49:03;6.50;;;3.97;;
44670;SDS011;48397;53.016;-2.260;2023-04-15T13:51:32;6.60;;;3.90;;
44670;SDS011;48397;53.016;-2.260;2023-04-15T13:54:02;10.57;;;4.05;;
44670;SDS011;48397;53.016;-2.260;2023-04-15T13:56:31;7.95;;;4.38;;
44670;SDS011;48397;53.016;-2.260;2023-04-15T14:01:28;8.30;;;4.35;;
44670;SDS011;48397;53.016;-2.260;2023-04-15T14:06:23;7.93;;;4.18;;
44670;SDS011;48397;53.016;-2.260;2023-04-15T14:08:52;7.38;;;4.75;;
44670;SDS011;48397;53.016;-2.260;2023-04-15T14:11:20;6.55;;;4.32;;
44670;SDS011;48397;53.016;-2.260;2023-04-15T14:13:48;7.28;;;4.80;;
44670;SDS011;48397;53.016;-2.260;2023-04-15T14:18:43;6.15;;;4.93;;
44670;SDS011;48397;53.016;-2.260;2023-04-15T14:21:12;6.22;;;3.90;;
44670;SDS011;48397;53.016;-2.260;2023-04-15T14:23:39;6.93;;;4.40;;
44670;SDS011;48397;53.016;-2.260;2023-04-15T14:26:07;7.32;;;4.50;;
44670;SDS011;48397;53.016;-2.260;2023-04-15T14:28:35;6.85;;;4.28;;
44670;SDS011;48397;53.016;-2.260;2023-04-15T14:31:05;6.63;;;4.47;;
44670;SDS011;48397;53.016;-2.260;2023-04-15T14:33:33;7.13;;;4.07;;
44670;SDS011;48397;53.016;-2.260;2023-04-15T14:36:01;6.32;;;4.05;;
44670;SDS011;48397;53.016;-2.260;2023-04-15T14:38:28;17.15;;;8.30;;
44670;SDS011;48397;53.016;-2.260;2023-04-15T14:40:57;5.28;;;3.67;;
44670;SDS011;48397;53.016;-2.260;2023-04-15T14:43:24;7.78;;;3.97;;
44670;SDS011;48397;53.016;-2.260;2023-04-15T14:45:52;5.00;;;3.70;;
44670;SDS011;48397;53.016;-2.260;2023-04-15T14:48:20;39.72;;;19.20;;
44670;SDS011;48397;53.016;-2.260;2023-04-15T14:50:48;5.78;;;4.00;;
44670;SDS011;48397;53.016;-2.260;2023-04-15T14:53:15;6.45;;;3.80;;
44670;SDS011;48397;53.016;-2.260;2023-04-15T14:55:43;5.68;;;3.63;;
44670;SDS011;48397;53.016;-2.260;2023-04-15T14:58:11;5.90;;;3.45;;
44670;SDS011;48397;53.016;-2.260;2023-04-15T15:00:39;7.10;;;3.78;;
44670;SDS011;48397;53.016;-2.260;2023-04-15T15:03:08;6.03;;;3.95;;
44670;SDS011;48397;53.016;-2.260;2023-04-15T15:05:41;5.93;;;3.20;;
44670;SDS011;48397;53.016;-2.260;2023-04-15T15:08:10;6.20;;;3.60;;
44670;SDS011;48397;53.016;-2.260;2023-04-15T15:10:39;8.20;;;4.55;;
44670;SDS011;48397;53.016;-2.260;2023-04-15T15:13:16;7.07;;;4.63;;
44670;SDS011;48397;53.016;-2.260;2023-04-15T15:15:44;8.10;;;4.75;;
44670;SDS011;48397;53.016;-2.260;2023-04-15T15:18:12;7.18;;;4.65;;
44670;SDS011;48397;53.016;-2.260;2023-04-15T15:20:40;6.57;;;4.60;;
44670;SDS011;48397;53.016;-2.260;2023-04-15T15:23:07;5.82;;;3.95;;
44670;SDS011;48397;53.016;-2.260;2023-04-15T15:25:35;9.43;;;5.20;;
44670;SDS011;48397;53.016;-2.260;2023-04-15T15:28:03;7.70;;;4.72;;
44670;SDS011;48397;53.016;-2.260;2023-04-15T15:30:31;82.57;;;37.15;;